sensor_id;sensor_type;location;lat;lon;timestamp;P1;durP1;ratioP1;P2;durP2;ratioP2
70126;SDS011;57491;42.694;23.314;2022-08-19T00:01:31;11.15;;;7.80;;
70126;SDS011;57491;42.694;23.314;2022-08-19T00:04:00;12.70;;;6.47;;
70126;SDS011;57491;42.694;23.314;2022-08-19T00:06:31;10.38;;;7.70;;
70126;SDS011;57491;42.694;23.314;2022-08-19T00:08:58;8.45;;;6.95;;
70126;SDS011;57491;42.694;23.314;2022-08-19T00:11:26;9.82;;;7.15;;
70126;SDS011;57491;42.694;23.314;2022-08-19T00:13:54;10.18;;;7.65;;
70126;SDS011;57491;42.694;23.314;2022-08-19T00:16:22;9.57;;;7.25;;
70126;SDS011;57491;42.694;23.314;2022-08-19T00:18:50;10.07;;;7.45;;
70126;SDS011;57491;42.694;23.314;2022-08-19T00:21:17;8.23;;;7.30;;
70126;SDS011;57491;42.694;23.314;2022-08-19T00:23:46;13.05;;;7.55;;
70126;SDS011;57491;42.694;23.314;2022-08-19T00:26:13;10.90;;;7.25;;
70126;SDS011;57491;42.694;23.314;2022-08-19T00:28:40;10.40;;;7.60;;
70126;SDS011;57491;42.694;23.314;2022-08-19T00:31:08;12.25;;;7.55;;
70126;SDS011;57491;42.694;23.314;2022-08-19T00:33:36;9.63;;;7.00;;
70126;SDS011;57491;42.694;23.314;2022-08-19T00:38:31;11.20;;;7.38;;
70126;SDS011;57491;42.694;23.314;2022-08-19T00:41:00;11.07;;;7.78;;
70126;SDS011;57491;42.694;23.314;2022-08-19T00:43:28;8.77;;;7.55;;
70126;SDS011;57491;42.694;23.314;2022-08-19T00:45:55;8.27;;;7.15;;
70126;SDS011;57491;42.694;23.314;2022-08-19T00:48:22;12.52;;;7.88;;
70126;SDS011;57491;42.694;23.314;2022-08-19T00:50:50;9.20;;;7.15;;
70126;SDS011;57491;42.694;23.314;2022-08-19T00:53:20;10.20;;;7.10;;
70126;SDS011;57491;42.694;23.314;2022-08-19T00:55:52;13.23;;;7.82;;
70126;SDS011;57491;42.694;23.314;2022-08-19T00:58:25;8.85;;;7.32;;
70126;SDS011;57491;42.694;23.314;2022-08-19T01:00:55;8.85;;;7.32;;
70126;SDS011;57491;42.694;23.314;2022-08-19T01:03:22;10.85;;;6.70;;
70126;SDS011;57491;42.694;23.314;2022-08-19T01:05:50;8.10;;;6.63;;
70126;SDS011;57491;42.694;23.314;2022-08-19T01:08:18;7.13;;;6.25;;
70126;SDS011;57491;42.694;23.314;2022-08-19T01:10:52;10.63;;;6.57;;
70126;SDS011;57491;42.694;23.314;2022-08-19T01:13:22;7.10;;;6.40;;
70126;SDS011;57491;42.694;23.314;2022-08-19T01:15:54;9.68;;;6.53;;
70126;SDS011;57491;42.694;23.314;2022-08-19T01:18:24;6.90;;;5.75;;
70126;SDS011;57491;42.694;23.314;2022-08-19T01:20:53;9.00;;;7.15;;
70126;SDS011;57491;42.694;23.314;2022-08-19T01:23:24;7.53;;;6.38;;
70126;SDS011;57491;42.694;23.314;2022-08-19T01:26:08;8.30;;;6.40;;
70126;SDS011;57491;42.694;23.314;2022-08-19T01:28:37;6.28;;;5.65;;
70126;SDS011;57491;42.694;23.314;2022-08-19T01:31:05;10.23;;;6.47;;
70126;SDS011;57491;42.694;23.314;2022-08-19T01:33:37;7.38;;;6.00;;
70126;SDS011;57491;42.694;23.314;2022-08-19T01:36:06;7.28;;;6.22;;
70126;SDS011;57491;42.694;23.314;2022-08-19T01:38:37;7.55;;;6.15;;
70126;SDS011;57491;42.694;23.314;2022-08-19T01:41:06;7.20;;;6.15;;
70126;SDS011;57491;42.694;23.314;2022-08-19T01:43:33;8.63;;;6.18;;
70126;SDS011;57491;42.694;23.314;2022-08-19T01:46:02;6.72;;;6.03;;
70126;SDS011;57491;42.694;23.314;2022-08-19T01:48:32;12.13;;;6.53;;
70126;SDS011;57491;42.694;23.314;2022-08-19T01:51:01;8.52;;;6.68;;
70126;SDS011;57491;42.694;23.314;2022-08-19T01:53:28;8.80;;;6.15;;
70126;SDS011;57491;42.694;23.314;2022-08-19T01:58:24;7.65;;;6.63;;
70126;SDS011;57491;42.694;23.314;2022-08-19T02:00:55;8.63;;;6.65;;
70126;SDS011;57491;42.694;23.314;2022-08-19T02:03:23;8.13;;;6.78;;
70126;SDS011;57491;42.694;23.314;2022-08-19T02:05:53;8.13;;;6.47;;
70126;SDS011;57491;42.694;23.314;2022-08-19T02:08:23;12.13;;;6.70;;
70126;SDS011;57491;42.694;23.314;2022-08-19T02:10:50;13.98;;;6.60;;
70126;SDS011;57491;42.694;23.314;2022-08-19T02:13:18;9.63;;;6.88;;
70126;SDS011;57491;42.694;23.314;2022-08-19T02:15:46;10.40;;;6.97;;
70126;SDS011;57491;42.694;23.314;2022-08-19T02:18:13;9.70;;;7.10;;
70126;SDS011;57491;42.694;23.314;2022-08-19T02:20:41;9.15;;;7.40;;
70126;SDS011;57491;42.694;23.314;2022-08-19T02:23:10;7.90;;;6.75;;
70126;SDS011;57491;42.694;23.314;2022-08-19T02:25:38;7.63;;;6.82;;
70126;SDS011;57491;42.694;23.314;2022-08-19T02:28:06;7.45;;;6.75;;
70126;SDS011;57491;42.694;23.314;2022-08-19T02:30:35;9.52;;;6.97;;
70126;SDS011;57491;42.694;23.314;2022-08-19T02:33:02;9.57;;;6.65;;
70126;SDS011;57491;42.694;23.314;2022-08-19T02:35:29;10.00;;;6.80;;
70126;SDS011;57491;42.694;23.314;2022-08-19T02:37:56;9.52;;;6.97;;
70126;SDS011;57491;42.694;23.314;2022-08-19T02:40:47;12.13;;;7.93;;
70126;SDS011;57491;42.694;23.314;2022-08-19T02:43:17;8.73;;;7.70;;
70126;SDS011;57491;42.694;23.314;2022-08-19T02:45:47;9.93;;;7.57;;
70126;SDS011;57491;42.694;23.314;2022-08-19T02:48:15;10.63;;;7.57;;
70126;SDS011;57491;42.694;23.314;2022-08-19T02:50:44;10.70;;;7.78;;
70126;SDS011;57491;42.694;23.314;2022-08-19T02:55:42;9.65;;;8.30;;
70126;SDS011;57491;42.694;23.314;2022-08-19T02:58:11;12.10;;;8.55;;
70126;SDS011;57491;42.694;23.314;2022-08-19T03:00:44;13.60;;;9.43;;
70126;SDS011;57491;42.694;23.314;2022-08-19T03:03:14;10.50;;;8.48;;
70126;SDS011;57491;42.694;23.314;2022-08-19T03:05:42;13.60;;;8.85;;
70126;SDS011;57491;42.694;23.314;2022-08-19T03:08:09;11.43;;;7.97;;
70126;SDS011;57491;42.694;23.314;2022-08-19T03:10:41;9.70;;;8.70;;
70126;SDS011;57491;42.694;23.314;2022-08-19T03:13:11;11.38;;;8.38;;
70126;SDS011;57491;42.694;23.314;2022-08-19T03:15:41;10.10;;;9.00;;
70126;SDS011;57491;42.694;23.314;2022-08-19T03:18:11;9.75;;;8.75;;
70126;SDS011;57491;42.694;23.314;2022-08-19T03:20:42;10.07;;;7.95;;
70126;SDS011;57491;42.694;23.314;2022-08-19T03:23:11;9.43;;;8.27;;
70126;SDS011;57491;42.694;23.314;2022-08-19T03:25:39;12.05;;;8.90;;
70126;SDS011;57491;42.694;23.314;2022-08-19T03:28:08;11.18;;;8.73;;
70126;SDS011;57491;42.694;23.314;2022-08-19T03:30:37;9.25;;;8.40;;
70126;SDS011;57491;42.694;23.314;2022-08-19T03:33:09;14.27;;;8.45;;
70126;SDS011;57491;42.694;23.314;2022-08-19T03:35:38;9.85;;;8.85;;
70126;SDS011;57491;42.694;23.314;2022-08-19T03:38:05;8.90;;;8.05;;
70126;SDS011;57491;42.694;23.314;2022-08-19T03:40:32;14.40;;;9.80;;
70126;SDS011;57491;42.694;23.314;2022-08-19T03:43:03;10.30;;;8.95;;
70126;SDS011;57491;42.694;23.314;2022-08-19T03:47:58;10.90;;;9.15;;
70126;SDS011;57491;42.694;23.314;2022-08-19T03:52:54;11.80;;;8.90;;
70126;SDS011;57491;42.694;23.314;2022-08-19T03:55:22;13.65;;;10.13;;
70126;SDS011;57491;42.694;23.314;2022-08-19T03:57:49;10.82;;;9.70;;
70126;SDS011;57491;42.694;23.314;2022-08-19T04:00:17;14.48;;;9.32;;
70126;SDS011;57491;42.694;23.314;2022-08-19T04:02:44;12.52;;;9.82;;
70126;SDS011;57491;42.694;23.314;2022-08-19T04:05:11;17.17;;;9.55;;
70126;SDS011;57491;42.694;23.314;2022-08-19T04:07:41;13.48;;;9.68;;
70126;SDS011;57491;42.694;23.314;2022-08-19T04:10:08;16.90;;;11.07;;
70126;SDS011;57491;42.694;23.314;2022-08-19T04:12:36;12.77;;;10.35;;
70126;SDS011;57491;42.694;23.314;2022-08-19T04:15:03;13.93;;;11.48;;
70126;SDS011;57491;42.694;23.314;2022-08-19T04:17:31;14.05;;;9.82;;
70126;SDS011;57491;42.694;23.314;2022-08-19T04:19:59;14.68;;;10.20;;
70126;SDS011;57491;42.694;23.314;2022-08-19T04:22:26;20.08;;;10.40;;
70126;SDS011;57491;42.694;23.314;2022-08-19T04:24:55;15.73;;;10.48;;
70126;SDS011;57491;42.694;23.314;2022-08-19T04:27:22;17.00;;;10.70;;
70126;SDS011;57491;42.694;23.314;2022-08-19T04:29:49;14.73;;;9.73;;
70126;SDS011;57491;42.694;23.314;2022-08-19T04:32:17;15.32;;;10.23;;
70126;SDS011;57491;42.694;23.314;2022-08-19T04:34:44;15.52;;;11.15;;
70126;SDS011;57491;42.694;23.314;2022-08-19T04:37:12;10.70;;;9.57;;
70126;SDS011;57491;42.694;23.314;2022-08-19T04:39:39;17.52;;;10.85;;
70126;SDS011;57491;42.694;23.314;2022-08-19T04:42:26;12.52;;;9.25;;
70126;SDS011;57491;42.694;23.314;2022-08-19T04:45:05;12.73;;;10.32;;
70126;SDS011;57491;42.694;23.314;2022-08-19T04:47:35;22.40;;;11.25;;
70126;SDS011;57491;42.694;23.314;2022-08-19T04:50:02;17.27;;;10.98;;
70126;SDS011;57491;42.694;23.314;2022-08-19T04:52:30;17.33;;;10.45;;
70126;SDS011;57491;42.694;23.314;2022-08-19T04:54:58;17.77;;;10.65;;
70126;SDS011;57491;42.694;23.314;2022-08-19T04:59:54;18.55;;;10.60;;
70126;SDS011;57491;42.694;23.314;2022-08-19T05:02:22;14.05;;;11.30;;
70126;SDS011;57491;42.694;23.314;2022-08-19T05:04:50;15.27;;;11.25;;
70126;SDS011;57491;42.694;23.314;2022-08-19T05:07:18;13.80;;;10.32;;
70126;SDS011;57491;42.694;23.314;2022-08-19T05:09:45;21.30;;;11.63;;
70126;SDS011;57491;42.694;23.314;2022-08-19T05:12:12;15.82;;;10.60;;
70126;SDS011;57491;42.694;23.314;2022-08-19T05:14:41;17.48;;;12.23;;
70126;SDS011;57491;42.694;23.314;2022-08-19T05:17:08;15.90;;;12.00;;
70126;SDS011;57491;42.694;23.314;2022-08-19T05:19:35;20.13;;;11.52;;
70126;SDS011;57491;42.694;23.314;2022-08-19T05:22:20;17.00;;;11.02;;
70126;SDS011;57491;42.694;23.314;2022-08-19T05:25:05;16.67;;;11.38;;
70126;SDS011;57491;42.694;23.314;2022-08-19T05:27:35;15.73;;;11.07;;
70126;SDS011;57491;42.694;23.314;2022-08-19T05:32:32;17.33;;;11.63;;
70126;SDS011;57491;42.694;23.314;2022-08-19T05:34:59;15.52;;;12.27;;
70126;SDS011;57491;42.694;23.314;2022-08-19T05:37:26;16.25;;;11.93;;
70126;SDS011;57491;42.694;23.314;2022-08-19T05:39:54;17.63;;;12.00;;
70126;SDS011;57491;42.694;23.314;2022-08-19T05:42:22;21.77;;;11.68;;
70126;SDS011;57491;42.694;23.314;2022-08-19T05:44:49;16.77;;;12.55;;
70126;SDS011;57491;42.694;23.314;2022-08-19T05:47:19;16.90;;;12.48;;
70126;SDS011;57491;42.694;23.314;2022-08-19T05:49:46;14.07;;;12.07;;
70126;SDS011;57491;42.694;23.314;2022-08-19T05:52:15;22.20;;;13.07;;
70126;SDS011;57491;42.694;23.314;2022-08-19T05:54:43;15.75;;;11.70;;
70126;SDS011;57491;42.694;23.314;2022-08-19T05:57:10;23.30;;;12.52;;
70126;SDS011;57491;42.694;23.314;2022-08-19T05:59:37;17.50;;;12.35;;
70126;SDS011;57491;42.694;23.314;2022-08-19T06:02:05;13.45;;;12.02;;
70126;SDS011;57491;42.694;23.314;2022-08-19T06:04:34;19.23;;;11.88;;
70126;SDS011;57491;42.694;23.314;2022-08-19T06:07:01;21.05;;;12.25;;
70126;SDS011;57491;42.694;23.314;2022-08-19T06:09:30;21.08;;;12.43;;
70126;SDS011;57491;42.694;23.314;2022-08-19T06:11:58;16.63;;;12.27;;
70126;SDS011;57491;42.694;23.314;2022-08-19T06:14:28;18.65;;;11.50;;
70126;SDS011;57491;42.694;23.314;2022-08-19T06:16:57;19.77;;;11.27;;
70126;SDS011;57491;42.694;23.314;2022-08-19T06:19:27;20.52;;;13.63;;
70126;SDS011;57491;42.694;23.314;2022-08-19T06:21:58;15.60;;;11.00;;
70126;SDS011;57491;42.694;23.314;2022-08-19T06:24:28;15.30;;;10.32;;
70126;SDS011;57491;42.694;23.314;2022-08-19T06:26:58;17.60;;;11.38;;
70126;SDS011;57491;42.694;23.314;2022-08-19T06:29:26;14.02;;;10.20;;
70126;SDS011;57491;42.694;23.314;2022-08-19T06:31:55;17.60;;;11.77;;
70126;SDS011;57491;42.694;23.314;2022-08-19T06:34:24;15.02;;;10.65;;
70126;SDS011;57491;42.694;23.314;2022-08-19T06:36:53;25.05;;;11.40;;
70126;SDS011;57491;42.694;23.314;2022-08-19T06:39:24;29.45;;;11.88;;
70126;SDS011;57491;42.694;23.314;2022-08-19T06:41:53;16.58;;;11.55;;
70126;SDS011;57491;42.694;23.314;2022-08-19T06:44:23;17.23;;;11.82;;
70126;SDS011;57491;42.694;23.314;2022-08-19T06:46:52;16.65;;;10.52;;
70126;SDS011;57491;42.694;23.314;2022-08-19T06:49:20;13.73;;;10.82;;
70126;SDS011;57491;42.694;23.314;2022-08-19T06:51:48;14.70;;;10.23;;
70126;SDS011;57491;42.694;23.314;2022-08-19T06:54:16;23.08;;;11.02;;
70126;SDS011;57491;42.694;23.314;2022-08-19T06:56:46;15.13;;;10.45;;
70126;SDS011;57491;42.694;23.314;2022-08-19T06:59:15;16.48;;;11.02;;
70126;SDS011;57491;42.694;23.314;2022-08-19T07:01:44;24.45;;;11.63;;
70126;SDS011;57491;42.694;23.314;2022-08-19T07:04:14;15.45;;;9.80;;
70126;SDS011;57491;42.694;23.314;2022-08-19T07:06:43;13.95;;;10.32;;
70126;SDS011;57491;42.694;23.314;2022-08-19T07:09:11;14.57;;;10.15;;
70126;SDS011;57491;42.694;23.314;2022-08-19T07:11:43;10.32;;;9.32;;
70126;SDS011;57491;42.694;23.314;2022-08-19T07:14:13;14.75;;;9.93;;
70126;SDS011;57491;42.694;23.314;2022-08-19T07:16:43;17.50;;;11.05;;
70126;SDS011;57491;42.694;23.314;2022-08-19T07:19:11;16.23;;;10.98;;
70126;SDS011;57491;42.694;23.314;2022-08-19T07:21:38;18.02;;;11.00;;
70126;SDS011;57491;42.694;23.314;2022-08-19T07:24:07;13.65;;;10.43;;
70126;SDS011;57491;42.694;23.314;2022-08-19T07:26:37;16.80;;;11.63;;
70126;SDS011;57491;42.694;23.314;2022-08-19T07:29:06;14.40;;;10.52;;
70126;SDS011;57491;42.694;23.314;2022-08-19T07:31:35;17.77;;;12.80;;
70126;SDS011;57491;42.694;23.314;2022-08-19T07:34:03;17.95;;;11.07;;
70126;SDS011;57491;42.694;23.314;2022-08-19T07:36:34;15.73;;;11.40;;
70126;SDS011;57491;42.694;23.314;2022-08-19T07:39:04;15.85;;;10.30;;
70126;SDS011;57491;42.694;23.314;2022-08-19T07:41:34;17.05;;;10.77;;
70126;SDS011;57491;42.694;23.314;2022-08-19T07:44:03;13.85;;;10.85;;
70126;SDS011;57491;42.694;23.314;2022-08-19T07:46:33;18.90;;;10.65;;
70126;SDS011;57491;42.694;23.314;2022-08-19T07:49:04;14.85;;;11.30;;
70126;SDS011;57491;42.694;23.314;2022-08-19T07:51:33;13.43;;;9.52;;
70126;SDS011;57491;42.694;23.314;2022-08-19T07:54:00;13.32;;;10.23;;
70126;SDS011;57491;42.694;23.314;2022-08-19T07:56:27;13.73;;;10.35;;
70126;SDS011;57491;42.694;23.314;2022-08-19T08:01:22;18.63;;;11.35;;
70126;SDS011;57491;42.694;23.314;2022-08-19T08:03:53;19.55;;;10.88;;
70126;SDS011;57491;42.694;23.314;2022-08-19T08:09:26;11.43;;;10.23;;
70126;SDS011;57491;42.694;23.314;2022-08-19T08:11:57;17.45;;;9.30;;
70126;SDS011;57491;42.694;23.314;2022-08-19T08:14:28;11.23;;;9.35;;
70126;SDS011;57491;42.694;23.314;2022-08-19T08:16:57;11.38;;;9.20;;
70126;SDS011;57491;42.694;23.314;2022-08-19T08:19:26;13.57;;;9.27;;
70126;SDS011;57491;42.694;23.314;2022-08-19T08:21:57;17.17;;;9.98;;
70126;SDS011;57491;42.694;23.314;2022-08-19T08:24:26;11.95;;;8.57;;
70126;SDS011;57491;42.694;23.314;2022-08-19T08:26:56;10.82;;;7.85;;
70126;SDS011;57491;42.694;23.314;2022-08-19T08:29:25;11.45;;;7.78;;
70126;SDS011;57491;42.694;23.314;2022-08-19T08:31:55;9.73;;;7.55;;
70126;SDS011;57491;42.694;23.314;2022-08-19T08:34:23;8.43;;;6.97;;
70126;SDS011;57491;42.694;23.314;2022-08-19T08:36:50;8.77;;;7.70;;
70126;SDS011;57491;42.694;23.314;2022-08-19T08:39:19;13.32;;;7.93;;
70126;SDS011;57491;42.694;23.314;2022-08-19T08:41:50;9.85;;;7.90;;
70126;SDS011;57491;42.694;23.314;2022-08-19T08:44:22;9.82;;;7.68;;
70126;SDS011;57491;42.694;23.314;2022-08-19T08:46:55;10.32;;;7.60;;
70126;SDS011;57491;42.694;23.314;2022-08-19T08:49:27;11.77;;;7.78;;
70126;SDS011;57491;42.694;23.314;2022-08-19T08:52:00;14.18;;;7.82;;
70126;SDS011;57491;42.694;23.314;2022-08-19T08:54:34;9.10;;;7.53;;
70126;SDS011;57491;42.694;23.314;2022-08-19T08:57:07;8.48;;;7.68;;
70126;SDS011;57491;42.694;23.314;2022-08-19T08:59:40;11.85;;;9.05;;
70126;SDS011;57491;42.694;23.314;2022-08-19T09:02:11;15.07;;;9.20;;
70126;SDS011;57491;42.694;23.314;2022-08-19T09:04:38;14.25;;;9.73;;
70126;SDS011;57491;42.694;23.314;2022-08-19T09:07:12;9.27;;;7.93;;
70126;SDS011;57491;42.694;23.314;2022-08-19T09:09:50;16.20;;;7.90;;
70126;SDS011;57491;42.694;23.314;2022-08-19T09:12:21;10.68;;;7.28;;
70126;SDS011;57491;42.694;23.314;2022-08-19T09:14:54;8.15;;;7.45;;
70126;SDS011;57491;42.694;23.314;2022-08-19T09:17:25;9.77;;;7.15;;
70126;SDS011;57491;42.694;23.314;2022-08-19T09:19:57;11.57;;;7.30;;
70126;SDS011;57491;42.694;23.314;2022-08-19T09:22:28;7.30;;;6.57;;
70126;SDS011;57491;42.694;23.314;2022-08-19T09:24:56;8.70;;;6.38;;
70126;SDS011;57491;42.694;23.314;2022-08-19T09:27:24;7.63;;;6.47;;
70126;SDS011;57491;42.694;23.314;2022-08-19T09:29:53;8.65;;;5.95;;
70126;SDS011;57491;42.694;23.314;2022-08-19T09:32:21;8.45;;;6.40;;
70126;SDS011;57491;42.694;23.314;2022-08-19T09:34:49;8.45;;;5.55;;
70126;SDS011;57491;42.694;23.314;2022-08-19T09:37:20;6.97;;;5.22;;
70126;SDS011;57491;42.694;23.314;2022-08-19T09:39:48;7.95;;;5.03;;
70126;SDS011;57491;42.694;23.314;2022-08-19T09:42:17;6.13;;;5.55;;
70126;SDS011;57491;42.694;23.314;2022-08-19T09:44:44;6.32;;;5.47;;
70126;SDS011;57491;42.694;23.314;2022-08-19T09:47:12;5.43;;;4.93;;
70126;SDS011;57491;42.694;23.314;2022-08-19T09:49:41;11.30;;;7.72;;
70126;SDS011;57491;42.694;23.314;2022-08-19T09:52:08;6.85;;;5.70;;
70126;SDS011;57491;42.694;23.314;2022-08-19T09:54:36;7.93;;;5.35;;
70126;SDS011;57491;42.694;23.314;2022-08-19T09:57:04;6.05;;;5.03;;
70126;SDS011;57491;42.694;23.314;2022-08-19T09:59:33;5.72;;;4.63;;
70126;SDS011;57491;42.694;23.314;2022-08-19T10:02:01;9.73;;;5.00;;
70126;SDS011;57491;42.694;23.314;2022-08-19T10:04:28;5.95;;;5.45;;
70126;SDS011;57491;42.694;23.314;2022-08-19T10:07:09;5.57;;;5.05;;
70126;SDS011;57491;42.694;23.314;2022-08-19T10:09:36;6.15;;;5.57;;
70126;SDS011;57491;42.694;23.314;2022-08-19T10:12:04;5.82;;;5.28;;
70126;SDS011;57491;42.694;23.314;2022-08-19T10:14:31;6.05;;;5.45;;
70126;SDS011;57491;42.694;23.314;2022-08-19T10:17:01;9.35;;;8.68;;
70126;SDS011;57491;42.694;23.314;2022-08-19T10:19:29;7.25;;;5.93;;
70126;SDS011;57491;42.694;23.314;2022-08-19T10:22:02;8.02;;;5.72;;
70126;SDS011;57491;42.694;23.314;2022-08-19T10:24:31;7.13;;;5.75;;
70126;SDS011;57491;42.694;23.314;2022-08-19T10:26:59;7.00;;;6.25;;
70126;SDS011;57491;42.694;23.314;2022-08-19T10:29:28;7.00;;;6.13;;
70126;SDS011;57491;42.694;23.314;2022-08-19T10:31:57;6.50;;;5.80;;
70126;SDS011;57491;42.694;23.314;2022-08-19T10:34:27;6.50;;;5.80;;
70126;SDS011;57491;42.694;23.314;2022-08-19T10:36:55;8.20;;;6.20;;
70126;SDS011;57491;42.694;23.314;2022-08-19T10:39:23;6.85;;;6.18;;
70126;SDS011;57491;42.694;23.314;2022-08-19T10:41:50;5.85;;;5.35;;
70126;SDS011;57491;42.694;23.314;2022-08-19T10:44:18;9.40;;;5.90;;
70126;SDS011;57491;42.694;23.314;2022-08-19T10:46:46;6.60;;;5.95;;
70126;SDS011;57491;42.694;23.314;2022-08-19T10:49:14;9.10;;;7.45;;
70126;SDS011;57491;42.694;23.314;2022-08-19T10:51:42;9.45;;;6.90;;
70126;SDS011;57491;42.694;23.314;2022-08-19T10:57:08;6.88;;;6.32;;
70126;SDS011;57491;42.694;23.314;2022-08-19T10:59:35;7.13;;;6.43;;
70126;SDS011;57491;42.694;23.314;2022-08-19T11:02:03;6.80;;;6.15;;
70126;SDS011;57491;42.694;23.314;2022-08-19T11:04:32;8.43;;;6.28;;
70126;SDS011;57491;42.694;23.314;2022-08-19T11:07:01;6.80;;;6.20;;
70126;SDS011;57491;42.694;23.314;2022-08-19T11:09:28;8.98;;;6.40;;
70126;SDS011;57491;42.694;23.314;2022-08-19T11:11:56;7.05;;;6.43;;
70126;SDS011;57491;42.694;23.314;2022-08-19T11:14:23;7.63;;;6.22;;
70126;SDS011;57491;42.694;23.314;2022-08-19T11:16:51;9.40;;;7.72;;
70126;SDS011;57491;42.694;23.314;2022-08-19T11:19:21;6.80;;;6.20;;
70126;SDS011;57491;42.694;23.314;2022-08-19T11:21:50;6.90;;;6.30;;
70126;SDS011;57491;42.694;23.314;2022-08-19T11:24:22;6.75;;;6.15;;
70126;SDS011;57491;42.694;23.314;2022-08-19T11:26:53;12.38;;;6.35;;
70126;SDS011;57491;42.694;23.314;2022-08-19T11:29:23;7.72;;;6.47;;
70126;SDS011;57491;42.694;23.314;2022-08-19T11:31:53;6.50;;;6.00;;
70126;SDS011;57491;42.694;23.314;2022-08-19T11:34:23;8.50;;;6.85;;
70126;SDS011;57491;42.694;23.314;2022-08-19T11:36:52;6.85;;;6.30;;
70126;SDS011;57491;42.694;23.314;2022-08-19T11:39:25;8.55;;;6.95;;
70126;SDS011;57491;42.694;23.314;2022-08-19T11:41:54;7.20;;;6.53;;
70126;SDS011;57491;42.694;23.314;2022-08-19T11:44:22;9.30;;;6.60;;
70126;SDS011;57491;42.694;23.314;2022-08-19T11:46:49;7.43;;;6.65;;
70126;SDS011;57491;42.694;23.314;2022-08-19T11:49:18;8.43;;;7.60;;
70126;SDS011;57491;42.694;23.314;2022-08-19T11:51:46;7.50;;;6.82;;
70126;SDS011;57491;42.694;23.314;2022-08-19T11:54:15;7.93;;;7.13;;
70126;SDS011;57491;42.694;23.314;2022-08-19T11:56:45;7.35;;;6.20;;
70126;SDS011;57491;42.694;23.314;2022-08-19T11:59:14;9.48;;;6.88;;
70126;SDS011;57491;42.694;23.314;2022-08-19T12:01:41;9.18;;;6.60;;
70126;SDS011;57491;42.694;23.314;2022-08-19T12:04:09;11.93;;;6.47;;
70126;SDS011;57491;42.694;23.314;2022-08-19T12:06:37;11.85;;;9.98;;
70126;SDS011;57491;42.694;23.314;2022-08-19T12:09:06;8.20;;;7.45;;
70126;SDS011;57491;42.694;23.314;2022-08-19T12:11:35;8.15;;;6.78;;
70126;SDS011;57491;42.694;23.314;2022-08-19T12:14:05;7.13;;;6.53;;
70126;SDS011;57491;42.694;23.314;2022-08-19T12:16:33;7.25;;;6.18;;
70126;SDS011;57491;42.694;23.314;2022-08-19T12:19:00;7.43;;;6.72;;
70126;SDS011;57491;42.694;23.314;2022-08-19T12:21:31;7.22;;;6.63;;
70126;SDS011;57491;42.694;23.314;2022-08-19T12:24:00;7.85;;;6.18;;
70126;SDS011;57491;42.694;23.314;2022-08-19T12:26:29;7.78;;;6.90;;
70126;SDS011;57491;42.694;23.314;2022-08-19T12:28:57;8.43;;;6.60;;
70126;SDS011;57491;42.694;23.314;2022-08-19T12:31:28;6.30;;;5.75;;
70126;SDS011;57491;42.694;23.314;2022-08-19T12:33:56;7.40;;;6.60;;
70126;SDS011;57491;42.694;23.314;2022-08-19T12:36:23;7.13;;;6.30;;
70126;SDS011;57491;42.694;23.314;2022-08-19T12:38:51;6.68;;;5.82;;
70126;SDS011;57491;42.694;23.314;2022-08-19T12:41:18;7.15;;;6.45;;
70126;SDS011;57491;42.694;23.314;2022-08-19T12:43:47;7.82;;;6.32;;
70126;SDS011;57491;42.694;23.314;2022-08-19T12:46:15;8.05;;;6.43;;
70126;SDS011;57491;42.694;23.314;2022-08-19T12:48:45;8.68;;;6.45;;
70126;SDS011;57491;42.694;23.314;2022-08-19T12:51:13;8.85;;;6.18;;
70126;SDS011;57491;42.694;23.314;2022-08-19T12:53:42;6.40;;;5.75;;
70126;SDS011;57491;42.694;23.314;2022-08-19T12:56:10;6.85;;;6.13;;
70126;SDS011;57491;42.694;23.314;2022-08-19T12:58:40;10.48;;;6.22;;
70126;SDS011;57491;42.694;23.314;2022-08-19T13:01:09;7.25;;;6.10;;
70126;SDS011;57491;42.694;23.314;2022-08-19T13:03:37;9.13;;;6.15;;
70126;SDS011;57491;42.694;23.314;2022-08-19T13:06:07;6.45;;;5.65;;
70126;SDS011;57491;42.694;23.314;2022-08-19T13:08:35;7.40;;;6.55;;
70126;SDS011;57491;42.694;23.314;2022-08-19T13:11:07;8.30;;;6.15;;
70126;SDS011;57491;42.694;23.314;2022-08-19T13:13:37;6.80;;;6.07;;
70126;SDS011;57491;42.694;23.314;2022-08-19T13:16:06;6.53;;;5.95;;
70126;SDS011;57491;42.694;23.314;2022-08-19T13:18:35;7.47;;;5.82;;
70126;SDS011;57491;42.694;23.314;2022-08-19T13:21:02;7.13;;;6.47;;
70126;SDS011;57491;42.694;23.314;2022-08-19T13:23:32;10.80;;;6.82;;
70126;SDS011;57491;42.694;23.314;2022-08-19T13:26:02;7.10;;;6.05;;
70126;SDS011;57491;42.694;23.314;2022-08-19T13:28:31;6.70;;;5.93;;
70126;SDS011;57491;42.694;23.314;2022-08-19T13:31:14;7.22;;;5.82;;
70126;SDS011;57491;42.694;23.314;2022-08-19T13:33:59;7.25;;;6.45;;
70126;SDS011;57491;42.694;23.314;2022-08-19T13:36:26;7.25;;;6.45;;
70126;SDS011;57491;42.694;23.314;2022-08-19T13:38:55;8.02;;;6.15;;
70126;SDS011;57491;42.694;23.314;2022-08-19T13:41:23;6.82;;;6.13;;
70126;SDS011;57491;42.694;23.314;2022-08-19T13:43:50;7.25;;;6.57;;
70126;SDS011;57491;42.694;23.314;2022-08-19T13:46:17;7.47;;;6.28;;
70126;SDS011;57491;42.694;23.314;2022-08-19T13:48:45;7.20;;;6.50;;
70126;SDS011;57491;42.694;23.314;2022-08-19T13:51:13;7.80;;;6.55;;
70126;SDS011;57491;42.694;23.314;2022-08-19T13:53:42;7.85;;;5.85;;
70126;SDS011;57491;42.694;23.314;2022-08-19T13:56:12;11.05;;;6.38;;
70126;SDS011;57491;42.694;23.314;2022-08-19T13:58:41;6.60;;;6.00;;
70126;SDS011;57491;42.694;23.314;2022-08-19T14:01:09;7.35;;;6.40;;
70126;SDS011;57491;42.694;23.314;2022-08-19T14:03:37;7.60;;;6.28;;
70126;SDS011;57491;42.694;23.314;2022-08-19T14:06:04;7.38;;;6.47;;
70126;SDS011;57491;42.694;23.314;2022-08-19T14:08:31;8.23;;;6.07;;
70126;SDS011;57491;42.694;23.314;2022-08-19T14:10:59;8.15;;;5.97;;
70126;SDS011;57491;42.694;23.314;2022-08-19T14:13:28;9.35;;;6.40;;
70126;SDS011;57491;42.694;23.314;2022-08-19T14:15:56;7.22;;;6.63;;
70126;SDS011;57491;42.694;23.314;2022-08-19T14:18:23;7.90;;;6.60;;
70126;SDS011;57491;42.694;23.314;2022-08-19T14:20:51;7.07;;;6.38;;
70126;SDS011;57491;42.694;23.314;2022-08-19T14:23:19;9.43;;;7.05;;
70126;SDS011;57491;42.694;23.314;2022-08-19T14:25:47;10.07;;;6.32;;
70126;SDS011;57491;42.694;23.314;2022-08-19T14:28:14;7.30;;;6.60;;
70126;SDS011;57491;42.694;23.314;2022-08-19T14:30:43;8.38;;;7.40;;
70126;SDS011;57491;42.694;23.314;2022-08-19T14:33:10;12.73;;;6.78;;
70126;SDS011;57491;42.694;23.314;2022-08-19T14:35:39;7.75;;;6.88;;
70126;SDS011;57491;42.694;23.314;2022-08-19T14:38:14;7.20;;;6.53;;
70126;SDS011;57491;42.694;23.314;2022-08-19T14:40:42;7.40;;;6.70;;
70126;SDS011;57491;42.694;23.314;2022-08-19T14:43:10;13.50;;;7.18;;
70126;SDS011;57491;42.694;23.314;2022-08-19T14:45:38;7.20;;;6.50;;
70126;SDS011;57491;42.694;23.314;2022-08-19T14:48:07;7.60;;;6.90;;
70126;SDS011;57491;42.694;23.314;2022-08-19T14:50:35;8.05;;;6.90;;
70126;SDS011;57491;42.694;23.314;2022-08-19T14:53:04;7.90;;;6.65;;
70126;SDS011;57491;42.694;23.314;2022-08-19T14:55:33;16.05;;;8.15;;
70126;SDS011;57491;42.694;23.314;2022-08-19T14:58:01;10.80;;;7.55;;
70126;SDS011;57491;42.694;23.314;2022-08-19T15:00:29;7.07;;;6.38;;
70126;SDS011;57491;42.694;23.314;2022-08-19T15:02:56;7.20;;;6.30;;